createdAt,value
2022-10-06T00:00:39.644Z,101069.75
2022-10-06T00:03:06.129Z,101071.53
2022-10-06T00:05:32.713Z,101077.53
2022-10-06T00:08:00.413Z,101081.22
2022-10-06T00:10:27.826Z,101079.97
2022-10-06T00:12:54.742Z,101081.06
2022-10-06T00:15:24.575Z,101088.22
2022-10-06T00:17:51.004Z,101096.50
2022-10-06T00:20:18.795Z,101099.13
2022-10-06T00:22:47.957Z,101103.47
2022-10-06T00:25:17.544Z,101098.53
2022-10-06T00:27:49.600Z,101095.53
2022-10-06T00:30:20.173Z,101094.59
2022-10-06T00:32:52.587Z,101083.50
2022-10-06T00:35:40.005Z,101092.09
2022-10-06T00:38:27.709Z,101085.13
2022-10-06T00:41:16.659Z,101093.88
2022-10-06T00:44:03.819Z,101102.63
2022-10-06T00:46:53.490Z,101106.97
2022-10-06T00:49:39.920Z,101103.72
2022-10-06T00:52:11.208Z,101103.50
2022-10-06T00:54:38.838Z,101102.50
2022-10-06T00:57:06.383Z,101103.41
2022-10-06T00:59:36.322Z,101110.63
2022-10-06T01:02:29.091Z,101109.22
2022-10-06T01:05:00.824Z,101118.50
2022-10-06T01:07:30.351Z,101122.28
2022-10-06T01:10:01.977Z,101140.44
2022-10-06T01:12:30.572Z,101146.38
2022-10-06T01:14:57.464Z,101158.75
2022-10-06T01:17:59.861Z,101163.00
2022-10-06T01:20:26.698Z,101161.38
2022-10-06T01:23:02.197Z,101161.00
2022-10-06T01:25:29.166Z,101154.09
2022-10-06T01:27:56.954Z,101156.88
2022-10-06T01:30:32.759Z,101169.97
2022-10-06T01:32:59.424Z,101167.75
2022-10-06T01:35:26.360Z,101167.16
2022-10-06T01:37:54.589Z,101163.59
2022-10-06T01:40:21.436Z,101167.94
2022-10-06T01:42:48.411Z,101177.81
2022-10-06T01:45:14.894Z,101175.09
2022-10-06T01:47:41.289Z,101177.16
2022-10-06T01:50:08.225Z,101190.31
2022-10-06T01:52:35.661Z,101183.72
2022-10-06T01:55:03.075Z,101188.25
2022-10-06T01:57:31.018Z,101189.91
2022-10-06T01:59:58.764Z,101193.31
2022-10-06T02:02:25.343Z,101186.44
2022-10-06T02:04:52.267Z,101189.81
2022-10-06T02:07:19.220Z,101192.72
2022-10-06T02:09:46.589Z,101199.81
2022-10-06T02:12:13.492Z,101197.19
2022-10-06T02:14:40.901Z,101199.09
2022-10-06T02:17:09.837Z,101199.09
2022-10-06T02:19:36.587Z,101197.28
2022-10-06T02:22:06.190Z,101202.47
2022-10-06T02:24:32.590Z,101207.59
2022-10-06T02:26:59.652Z,101210.19
2022-10-06T02:29:26.216Z,101221.19
2022-10-06T02:31:54.974Z,101225.59
2022-10-06T02:34:22.111Z,101215.13
2022-10-06T02:36:48.926Z,101222.81
2022-10-06T02:39:15.508Z,101229.78
2022-10-06T02:41:42.387Z,101235.84
2022-10-06T02:44:08.876Z,101237.47
2022-10-06T02:46:37.241Z,101241.69
2022-10-06T02:49:03.770Z,101237.28
2022-10-06T02:51:31.374Z,101256.47
2022-10-06T02:53:59.409Z,101255.75
2022-10-06T02:56:26.622Z,101268.13
2022-10-06T02:58:53.509Z,101268.06
2022-10-06T03:01:28.394Z,101274.91
2022-10-06T03:03:58.057Z,101280.16
2022-10-06T03:06:27.249Z,101285.56
2022-10-06T03:09:09.166Z,101293.16
2022-10-06T03:11:38.819Z,101296.72
2022-10-06T03:14:07.132Z,101311.56
2022-10-06T03:16:37.044Z,101325.66
2022-10-06T03:19:04.178Z,101332.78
2022-10-06T03:21:33.597Z,101334.13
2022-10-06T03:24:00.713Z,101331.63
2022-10-06T03:26:31.277Z,101322.53
2022-10-06T03:28:58.542Z,101333.84
2022-10-06T03:31:25.606Z,101338.59
2022-10-06T03:33:54.574Z,101341.94
2022-10-06T03:36:23.492Z,101356.88
2022-10-06T03:38:50.720Z,101356.09
2022-10-06T03:41:20.340Z,101351.75
2022-10-06T03:43:49.395Z,101355.38
2022-10-06T03:46:19.994Z,101358.72
2022-10-06T03:48:47.435Z,101373.53
2022-10-06T03:51:22.238Z,101382.53
2022-10-06T03:53:52.144Z,101385.94
2022-10-06T03:56:33.255Z,101387.84
2022-10-06T03:59:02.193Z,101389.91
2022-10-06T04:01:35.681Z,101382.72
2022-10-06T04:04:06.511Z,101389.50
2022-10-06T04:06:36.472Z,101392.66
2022-10-06T04:09:07.777Z,101404.78
2022-10-06T04:11:38.712Z,101410.16
2022-10-06T04:14:08.799Z,101409.19
2022-10-06T04:16:38.875Z,101402.22
2022-10-06T04:19:09.812Z,101411.19
2022-10-06T04:21:41.816Z,101412.69
2022-10-06T04:24:12.307Z,101418.63
2022-10-06T04:26:45.552Z,101434.44
2022-10-06T04:29:13.422Z,101426.59
2022-10-06T04:31:41.175Z,101430.88
2022-10-06T04:34:14.406Z,101437.00
2022-10-06T04:36:43.104Z,101427.53
2022-10-06T04:39:16.352Z,101435.59
2022-10-06T04:41:47.532Z,101439.94
2022-10-06T04:44:28.348Z,101440.00
2022-10-06T04:46:57.775Z,101444.72
2022-10-06T04:49:25.438Z,101450.78
2022-10-06T04:51:53.398Z,101456.16
2022-10-06T04:54:20.967Z,101455.44
2022-10-06T04:56:51.339Z,101457.88
2022-10-06T04:59:21.138Z,101455.84
2022-10-06T05:01:47.920Z,101462.09
2022-10-06T05:04:14.662Z,101469.13
2022-10-06T05:06:42.165Z,101472.63
2022-10-06T05:09:12.970Z,101470.09
2022-10-06T05:11:44.870Z,101483.19
2022-10-06T05:14:14.083Z,101481.94
2022-10-06T05:16:43.838Z,101487.78
2022-10-06T05:19:11.590Z,101485.44
2022-10-06T05:21:39.075Z,101494.88
2022-10-06T05:24:07.187Z,101495.72
2022-10-06T05:26:35.572Z,101497.63
2022-10-06T05:29:04.656Z,101502.13
2022-10-06T05:31:33.918Z,101513.41
2022-10-06T05:34:03.048Z,101521.31
2022-10-06T05:36:31.560Z,101530.91
2022-10-06T05:38:59.001Z,101529.41
2022-10-06T05:41:32.944Z,101521.44
2022-10-06T05:44:03.144Z,101522.25
2022-10-06T05:46:33.179Z,101524.88
2022-10-06T05:49:03.480Z,101538.31
2022-10-06T05:51:34.064Z,101547.88
2022-10-06T05:54:05.144Z,101540.78
2022-10-06T05:56:35.286Z,101547.97
2022-10-06T05:59:03.360Z,101550.44
2022-10-06T06:01:36.124Z,101550.50
2022-10-06T06:04:09.213Z,101566.22
2022-10-06T06:06:43.146Z,101572.22
2022-10-06T06:09:16.133Z,101581.94
2022-10-06T06:11:44.936Z,101575.75
2022-10-06T06:14:14.761Z,101586.34
2022-10-06T06:16:43.068Z,101596.88
2022-10-06T06:19:11.952Z,101602.78
2022-10-06T06:21:40.510Z,101607.97
2022-10-06T06:24:08.670Z,101605.41
2022-10-06T06:26:37.114Z,101612.31
2022-10-06T06:29:06.184Z,101622.78
2022-10-06T06:31:40.167Z,101616.72
2022-10-06T06:34:07.438Z,101628.22
2022-10-06T06:36:45.067Z,101626.28
2022-10-06T06:39:15.314Z,101640.22
2022-10-06T06:41:47.712Z,101631.41
2022-10-06T06:44:40.902Z,101646.13
2022-10-06T06:47:34.900Z,101652.16
2022-10-06T06:50:06.047Z,101652.94
2022-10-06T06:52:32.488Z,101655.72
2022-10-06T06:54:59.411Z,101662.41
2022-10-06T06:57:27.112Z,101671.22
2022-10-06T06:59:57.175Z,101674.47
2022-10-06T07:02:26.503Z,101671.63
2022-10-06T07:04:53.101Z,101672.31
2022-10-06T07:07:21.010Z,101677.00
2022-10-06T07:09:47.847Z,101676.69
2022-10-06T07:12:16.125Z,101675.09
2022-10-06T07:15:06.523Z,101675.28
2022-10-06T07:17:56.678Z,101680.97
2022-10-06T07:20:42.088Z,101688.28
2022-10-06T07:23:35.498Z,101701.44
2022-10-06T07:26:04.525Z,101706.47
2022-10-06T07:28:31.268Z,101719.63
2022-10-06T07:31:00.481Z,101713.16
2022-10-06T07:33:29.122Z,101729.53
2022-10-06T07:35:55.562Z,101724.69
2022-10-06T07:38:25.759Z,101728.44
2022-10-06T07:41:17.957Z,101742.19
2022-10-06T07:43:42.969Z,101736.97
2022-10-06T07:46:13.311Z,101736.13
2022-10-06T07:48:48.443Z,101742.75
2022-10-06T07:51:19.282Z,101751.41
2022-10-06T07:53:50.700Z,101758.78
2022-10-06T07:56:23.847Z,101757.31
2022-10-06T07:58:55.755Z,101767.06
2022-10-06T08:01:22.462Z,101773.91
2022-10-06T08:03:50.542Z,101767.72
2022-10-06T08:06:18.965Z,101767.13
2022-10-06T08:08:52.506Z,101762.34
2022-10-06T08:11:21.115Z,101766.97
2022-10-06T08:13:48.254Z,101764.03
2022-10-06T08:16:18.307Z,101774.19
2022-10-06T08:18:50.277Z,101767.16
2022-10-06T08:21:28.811Z,101780.38
2022-10-06T08:23:56.727Z,101768.50
2022-10-06T08:26:25.094Z,101774.91
2022-10-06T08:28:53.578Z,101776.03
2022-10-06T08:31:22.142Z,101783.81
2022-10-06T08:33:52.885Z,101791.59
2022-10-06T08:36:20.548Z,101790.00
2022-10-06T08:38:50.067Z,101782.22
2022-10-06T08:41:51.906Z,101790.75
2022-10-06T08:44:32.509Z,101796.28
2022-10-06T08:47:22.602Z,101794.66
2022-10-06T08:49:51.838Z,101788.94
2022-10-06T08:52:47.063Z,101780.56
2022-10-06T08:55:35.568Z,101796.50
2022-10-06T08:58:39.560Z,101797.50
2022-10-06T09:01:19.066Z,101796.81
2022-10-06T09:03:48.785Z,101811.44
2022-10-06T09:06:35.151Z,101807.88
2022-10-06T09:09:47.973Z,101813.91
2022-10-06T09:12:18.216Z,101814.66
2022-10-06T09:14:57.115Z,101808.56
2022-10-06T09:17:34.088Z,101815.81
2022-10-06T09:20:15.488Z,101817.56
2022-10-06T09:22:44.298Z,101811.25
2022-10-06T09:25:20.720Z,101815.94
2022-10-06T09:27:52.947Z,101815.25
2022-10-06T09:30:20.186Z,101820.91
2022-10-06T09:32:51.429Z,101835.84
2022-10-06T09:35:23.822Z,101830.38
2022-10-06T09:37:59.250Z,101832.88
2022-10-06T09:40:37.456Z,101833.88
2022-10-06T09:43:16.642Z,101835.38
2022-10-06T09:45:43.159Z,101828.91
2022-10-06T09:48:24.651Z,101841.75
2022-10-06T09:51:14.888Z,101840.06
2022-10-06T09:53:42.665Z,101841.00
2022-10-06T09:56:18.823Z,101834.91
2022-10-06T09:58:56.695Z,101832.63
2022-10-06T10:01:29.336Z,101834.44
2022-10-06T10:04:21.626Z,101831.34
2022-10-06T10:06:49.164Z,101831.22
2022-10-06T10:09:22.852Z,101835.88
2022-10-06T10:12:20.635Z,101846.81
2022-10-06T10:14:47.481Z,101831.00
2022-10-06T10:17:22.026Z,101836.41
2022-10-06T10:19:56.056Z,101827.84
2022-10-06T10:22:34.152Z,101841.69
2022-10-06T10:25:21.342Z,101833.19
2022-10-06T10:28:04.375Z,101824.59
2022-10-06T10:30:40.507Z,101825.09
2022-10-06T10:33:26.718Z,101830.28
2022-10-06T10:35:55.757Z,101830.31
2022-10-06T10:38:25.989Z,101833.50
2022-10-06T10:40:59.978Z,101829.34
2022-10-06T10:43:36.112Z,101835.47
2022-10-06T10:46:13.284Z,101832.63
2022-10-06T10:49:01.326Z,101831.31
2022-10-06T10:51:32.871Z,101833.09
2022-10-06T10:54:08.680Z,101831.19
2022-10-06T10:56:35.463Z,101827.31
2022-10-06T10:59:32.440Z,101834.84
2022-10-06T11:02:05.272Z,101839.34
2022-10-06T11:04:32.198Z,101837.22
2022-10-06T11:07:10.990Z,101842.53
2022-10-06T11:09:56.215Z,101832.66
2022-10-06T11:12:53.104Z,101838.34
2022-10-06T11:15:24.039Z,101840.22
2022-10-06T11:17:54.622Z,101843.66
2022-10-06T11:20:54.987Z,101840.38
2022-10-06T11:23:41.091Z,101830.75
2022-10-06T11:26:24.856Z,101838.22
2022-10-06T11:29:02.184Z,101838.38
2022-10-06T11:31:48.147Z,101836.06
2022-10-06T11:34:14.891Z,101833.47
2022-10-06T11:37:03.175Z,101820.03
2022-10-06T11:39:51.359Z,101824.03
2022-10-06T11:42:37.968Z,101818.56
2022-10-06T11:45:16.141Z,101819.56
2022-10-06T11:48:10.764Z,101823.16
2022-10-06T11:50:41.712Z,101819.22
2022-10-06T11:53:39.451Z,101821.31
2022-10-06T11:56:18.675Z,101817.88
2022-10-06T11:58:51.254Z,101807.41
2022-10-06T12:01:37.669Z,101805.00
2022-10-06T12:04:04.427Z,101804.88
2022-10-06T12:06:50.900Z,101806.56
2022-10-06T12:09:33.900Z,101810.63
2022-10-06T12:12:25.762Z,101803.16
2022-10-06T12:18:00.234Z,101799.13
2022-10-06T12:20:49.859Z,101795.72
2022-10-06T12:23:25.929Z,101794.63
2022-10-06T12:25:58.668Z,101798.28
2022-10-06T12:28:50.628Z,101798.75
2022-10-06T12:31:45.095Z,101798.28
2022-10-06T12:34:39.678Z,101798.47
2022-10-06T12:37:36.346Z,101788.81
2022-10-06T12:40:40.330Z,101780.63
2022-10-06T12:43:19.276Z,101786.03
2022-10-06T12:46:04.740Z,101789.31
2022-10-06T12:49:02.004Z,101777.19
2022-10-06T12:51:52.343Z,101767.31
2022-10-06T12:54:38.089Z,101760.84
2022-10-06T12:57:18.618Z,101777.94
2022-10-06T12:59:46.459Z,101776.84
2022-10-06T13:02:21.999Z,101774.81
2022-10-06T13:04:53.254Z,101788.63
2022-10-06T13:07:32.953Z,101779.94
2022-10-06T13:10:14.720Z,101762.25
2022-10-06T13:12:47.085Z,101766.91
2022-10-06T13:15:23.325Z,101768.88
2022-10-06T13:17:53.341Z,101768.50
2022-10-06T13:20:41.966Z,101762.41
2022-10-06T13:23:22.853Z,101763.78
2022-10-06T13:26:02.374Z,101756.13
2022-10-06T13:28:44.163Z,101762.03
2022-10-06T13:31:26.652Z,101752.78
2022-10-06T13:34:06.591Z,101759.94
2022-10-06T13:36:39.212Z,101748.91
2022-10-06T13:39:32.237Z,101748.81
2022-10-06T13:42:04.961Z,101745.16
2022-10-06T13:44:57.818Z,101745.28
2022-10-06T13:47:27.239Z,101740.66
2022-10-06T13:49:59.486Z,101746.25
2022-10-06T13:52:40.939Z,101754.75
2022-10-06T13:55:34.912Z,101755.31
2022-10-06T13:58:04.875Z,101745.66
2022-10-06T14:00:55.884Z,101745.22
2022-10-06T14:06:06.276Z,101743.44
2022-10-06T14:08:33.919Z,101752.06
2022-10-06T14:11:06.884Z,101745.03
2022-10-06T14:13:39.662Z,101734.28
2022-10-06T14:16:09.236Z,101745.19
2022-10-06T14:18:45.111Z,101739.19
2022-10-06T14:21:44.880Z,101734.16
2022-10-06T14:24:19.257Z,101735.28
2022-10-06T14:26:50.983Z,101733.22
2022-10-06T14:29:19.083Z,101729.84
2022-10-06T14:31:46.750Z,101732.88
2022-10-06T14:34:16.756Z,101728.00
2022-10-06T14:36:45.646Z,101732.28
2022-10-06T14:39:14.583Z,101727.56
2022-10-06T14:41:41.425Z,101719.88
2022-10-06T14:44:10.755Z,101726.75
2022-10-06T14:46:39.058Z,101730.31
2022-10-06T14:49:07.435Z,101730.25
2022-10-06T14:51:36.923Z,101730.00
2022-10-06T14:54:05.006Z,101719.88
2022-10-06T14:56:34.214Z,101724.38
2022-10-06T14:59:05.208Z,101716.72
2022-10-06T15:01:33.984Z,101725.50
2022-10-06T15:04:03.724Z,101716.69
2022-10-06T15:06:49.104Z,101715.00
2022-10-06T15:09:15.767Z,101716.81
2022-10-06T15:11:42.434Z,101709.47
2022-10-06T15:14:09.933Z,101721.00
2022-10-06T15:16:40.472Z,101712.25
2022-10-06T15:19:07.148Z,101715.56
2022-10-06T15:21:34.760Z,101704.28
2022-10-06T15:24:07.478Z,101705.78
2022-10-06T15:26:55.162Z,101711.38
2022-10-06T15:29:21.569Z,101704.44
2022-10-06T15:31:53.024Z,101715.63
2022-10-06T15:34:23.628Z,101700.94
2022-10-06T15:36:52.197Z,101704.72
2022-10-06T15:39:21.342Z,101704.88
2022-10-06T15:41:48.836Z,101705.97
2022-10-06T15:44:16.250Z,101700.91
2022-10-06T15:46:51.934Z,101698.38
2022-10-06T15:49:21.216Z,101704.94
2022-10-06T15:51:50.436Z,101698.00
2022-10-06T15:54:20.070Z,101693.41
2022-10-06T15:56:51.355Z,101704.66
2022-10-06T15:59:23.871Z,101702.63
2022-10-06T16:01:55.606Z,101710.84
2022-10-06T16:04:34.849Z,101706.03
2022-10-06T16:07:13.225Z,101709.72
2022-10-06T16:09:43.479Z,101704.16
2022-10-06T16:12:12.351Z,101710.06
2022-10-06T16:14:39.363Z,101704.88
2022-10-06T16:17:06.662Z,101705.03
2022-10-06T16:19:33.908Z,101702.41
2022-10-06T16:22:01.119Z,101704.38
2022-10-06T16:24:28.198Z,101694.72
2022-10-06T16:26:58.107Z,101700.06
2022-10-06T16:29:25.068Z,101709.47
2022-10-06T16:31:52.109Z,101713.75
2022-10-06T16:34:19.032Z,101705.91
2022-10-06T16:36:45.759Z,101712.56
2022-10-06T16:39:17.655Z,101711.97
2022-10-06T16:41:45.107Z,101717.16
2022-10-06T16:44:11.891Z,101714.38
2022-10-06T16:46:39.154Z,101708.28
2022-10-06T16:49:08.683Z,101709.94
2022-10-06T16:51:43.623Z,101710.38
2022-10-06T16:54:12.719Z,101709.34
2022-10-06T16:56:40.128Z,101714.56
2022-10-06T16:59:12.943Z,101709.50
2022-10-06T17:01:39.662Z,101718.06
2022-10-06T17:04:18.013Z,101717.94
2022-10-06T17:06:46.940Z,101712.88
2022-10-06T17:09:20.165Z,101722.16
2022-10-06T17:12:06.794Z,101717.59
2022-10-06T17:14:35.075Z,101724.75
2022-10-06T17:17:01.455Z,101726.91
2022-10-06T17:19:29.660Z,101729.44
2022-10-06T17:21:59.752Z,101736.69
2022-10-06T17:24:28.026Z,101726.53
2022-10-06T17:26:56.206Z,101726.84
2022-10-06T17:29:23.176Z,101732.16
2022-10-06T17:31:56.451Z,101731.97
2022-10-06T17:34:26.565Z,101743.00
2022-10-06T17:36:57.454Z,101742.97
2022-10-06T17:39:24.406Z,101747.88
2022-10-06T17:41:52.735Z,101744.91
2022-10-06T17:44:27.930Z,101743.75
2022-10-06T17:46:57.445Z,101752.31
2022-10-06T17:49:24.868Z,101749.00
2022-10-06T17:51:54.899Z,101744.75
2022-10-06T17:54:23.800Z,101743.72
2022-10-06T17:56:54.026Z,101749.63
2022-10-06T17:59:22.246Z,101741.81
2022-10-06T18:01:51.476Z,101743.88
2022-10-06T18:04:18.682Z,101741.81
2022-10-06T18:06:47.051Z,101739.94
2022-10-06T18:09:14.808Z,101738.94
2022-10-06T18:11:44.016Z,101742.69
2022-10-06T18:14:18.967Z,101741.84
2022-10-06T18:16:48.240Z,101735.22
2022-10-06T18:19:24.391Z,101743.00
2022-10-06T18:21:50.955Z,101741.50
2022-10-06T18:24:21.078Z,101733.13
2022-10-06T18:26:53.844Z,101747.63
2022-10-06T18:29:22.615Z,101742.53
2022-10-06T18:31:51.466Z,101736.09
2022-10-06T18:36:10.493Z,101734.63
2022-10-06T18:37:05.305Z,101730.28
2022-10-06T18:39:33.649Z,101735.50
2022-10-06T18:42:03.617Z,101737.59
2022-10-06T18:44:50.010Z,101728.13
2022-10-06T18:47:35.051Z,101736.25
2022-10-06T18:50:01.947Z,101727.16
2022-10-06T18:52:28.773Z,101731.50
2022-10-06T18:54:55.541Z,101738.84
2022-10-06T18:57:27.232Z,101737.16
2022-10-06T18:59:54.373Z,101728.75
2022-10-06T19:02:21.091Z,101732.28
2022-10-06T19:04:48.570Z,101732.44
2022-10-06T19:07:15.177Z,101737.44
2022-10-06T19:09:46.529Z,101737.16
2022-10-06T19:12:14.749Z,101738.84
2022-10-06T19:14:47.267Z,101735.81
2022-10-06T19:17:16.010Z,101733.88
2022-10-06T19:19:45.489Z,101736.06
2022-10-06T19:22:14.613Z,101732.28
2022-10-06T19:24:43.723Z,101733.81
2022-10-06T19:27:16.621Z,101733.44
2022-10-06T19:29:48.261Z,101732.56
2022-10-06T19:32:18.646Z,101729.63
2022-10-06T19:34:46.834Z,101736.06
2022-10-06T19:37:13.960Z,101742.25
2022-10-06T19:39:43.989Z,101734.09
2022-10-06T19:42:30.272Z,101738.84
2022-10-06T19:44:57.443Z,101738.50
2022-10-06T19:47:24.089Z,101743.53
2022-10-06T19:49:52.173Z,101744.16
2022-10-06T19:52:20.672Z,101751.59
2022-10-06T19:54:47.639Z,101756.66
2022-10-06T19:57:14.397Z,101761.19
2022-10-06T19:59:41.236Z,101749.13
2022-10-06T20:02:08.520Z,101760.69
2022-10-06T20:04:36.132Z,101761.50
2022-10-06T20:07:03.804Z,101762.34
2022-10-06T20:09:31.941Z,101763.53
2022-10-06T20:11:59.001Z,101758.34
2022-10-06T20:14:26.532Z,101760.47
2022-10-06T20:16:54.605Z,101763.84
2022-10-06T20:19:22.089Z,101755.41
2022-10-06T20:21:49.209Z,101764.91
2022-10-06T20:24:22.825Z,101757.66
2022-10-06T20:26:50.567Z,101759.63
2022-10-06T20:29:20.455Z,101755.06
2022-10-06T20:31:51.335Z,101749.84
2022-10-06T20:34:21.493Z,101752.88
2022-10-06T20:36:51.848Z,101749.19
2022-10-06T20:39:41.356Z,101751.13
2022-10-06T20:42:13.629Z,101743.66
2022-10-06T20:44:42.347Z,101756.50
2022-10-06T20:47:10.399Z,101749.56
2022-10-06T20:49:36.986Z,101748.06
2022-10-06T20:52:04.916Z,101743.75
2022-10-06T20:54:34.556Z,101737.53
2022-10-06T20:57:04.398Z,101736.66
2022-10-06T20:59:32.450Z,101736.97
2022-10-06T21:02:01.787Z,101739.72
2022-10-06T21:04:28.686Z,101740.81
2022-10-06T21:06:55.245Z,101733.72
2022-10-06T21:09:22.585Z,101734.94
2022-10-06T21:11:50.352Z,101728.75
2022-10-06T21:14:18.166Z,101728.19
2022-10-06T21:16:47.037Z,101728.81
2022-10-06T21:19:16.182Z,101735.00
2022-10-06T21:21:45.637Z,101722.06
2022-10-06T21:24:12.382Z,101723.78
2022-10-06T21:26:44.511Z,101719.56
2022-10-06T21:29:15.171Z,101716.03
2022-10-06T21:31:43.109Z,101716.00
2022-10-06T21:34:10.231Z,101710.94
2022-10-06T21:36:37.273Z,101711.97
2022-10-06T21:39:07.379Z,101717.28
2022-10-06T21:41:38.586Z,101712.13
2022-10-06T21:44:06.270Z,101715.44
2022-10-06T21:46:35.942Z,101710.34
2022-10-06T21:49:04.770Z,101705.19
2022-10-06T21:51:32.859Z,101705.19
2022-10-06T21:54:00.288Z,101704.50
2022-10-06T21:56:29.258Z,101714.16
2022-10-06T21:58:56.450Z,101708.09
2022-10-06T22:01:26.652Z,101704.56
2022-10-06T22:03:53.812Z,101703.75
2022-10-06T22:06:20.415Z,101704.69
2022-10-06T22:08:48.106Z,101699.50
2022-10-06T22:11:20.867Z,101703.06
2022-10-06T22:13:50.154Z,101700.34
2022-10-06T22:16:19.093Z,101703.94
2022-10-06T22:18:46.622Z,101707.34
2022-10-06T22:21:28.625Z,101689.94
2022-10-06T22:24:00.385Z,101695.47
2022-10-06T22:26:28.528Z,101695.34
2022-10-06T22:28:56.998Z,101692.69
2022-10-06T22:31:26.341Z,101693.59
2022-10-06T22:34:04.643Z,101691.19
2022-10-06T22:36:32.991Z,101682.50
2022-10-06T22:39:00.322Z,101690.22
2022-10-06T22:41:27.982Z,101690.34
2022-10-06T22:43:57.387Z,101684.09
2022-10-06T22:46:29.746Z,101678.94
2022-10-06T22:48:56.593Z,101686.09
2022-10-06T22:51:23.766Z,101675.59
2022-10-06T22:53:59.243Z,101674.59
2022-10-06T22:56:27.495Z,101679.81
2022-10-06T22:58:54.707Z,101670.41
2022-10-06T23:01:21.391Z,101668.72
2022-10-06T23:03:47.947Z,101665.38
2022-10-06T23:06:16.861Z,101663.53
2022-10-06T23:08:43.759Z,101659.81
2022-10-06T23:11:13.769Z,101659.88
2022-10-06T23:13:41.027Z,101658.34
2022-10-06T23:16:09.595Z,101660.03
2022-10-06T23:18:38.385Z,101655.66
2022-10-06T23:21:11.235Z,101648.78
2022-10-06T23:23:37.891Z,101652.25
2022-10-06T23:26:11.156Z,101658.31
2022-10-06T23:28:38.387Z,101658.25
2022-10-06T23:31:07.030Z,101653.06
2022-10-06T23:33:34.709Z,101649.63
2022-10-06T23:36:06.482Z,101647.09
2022-10-06T23:38:34.897Z,101648.84
2022-10-06T23:41:01.360Z,101653.97
2022-10-06T23:43:28.251Z,101637.38
2022-10-06T23:45:54.901Z,101642.72
2022-10-06T23:48:22.103Z,101634.06
2022-10-06T23:51:00.499Z,101632.31
2022-10-06T23:53:27.859Z,101630.59
2022-10-06T23:55:54.644Z,101632.41
2022-10-06T23:58:22.725Z,101629.78
